Time;durP1;ratioP1;P1;durP2;ratioP2;P2;SDS_P1;SDS_P2;PMS_P1;PMS_P2;Temp;Humidity;BMP_temperature;BMP_pressure;BME280_temperature;BME280_humidity;BME280_pressure;Samples;Min_cycle;Max_cycle;Signal;HPM_P1;HPM_P2
2021/12/17 00:00:32;;;;;;;23.67;12.77;;;;;;;6.78;100.00;103205.56;4970349;28;20062;-85
2021/12/17 00:03:16;;;;;;;26.17;14.15;;;;;;;6.82;100.00;103201.41;4971749;28;20654;-88
2021/12/17 00:06:12;;;;;;;28.63;15.23;;;;;;;6.88;100.00;103206.91;4971062;28;20049;-85
2021/12/17 00:08:44;;;;;;;27.70;14.50;;;;;;;6.93;100.00;103207.97;4970956;28;21313;-88
2021/12/17 00:11:11;;;;;;;28.98;15.15;;;;;;;6.95;100.00;103214.16;4965476;28;20050;-86
2021/12/17 00:13:40;;;;;;;28.77;15.00;;;;;;;6.93;100.00;103221.00;4987572;28;20127;-84
2021/12/17 00:16:14;;;;;;;29.63;14.25;;;;;;;6.88;100.00;103219.91;4951769;28;20460;-87
2021/12/17 00:18:55;;;;;;;28.85;14.60;;;;;;;6.86;100.00;103218.06;4954414;28;20131;-85
2021/12/17 00:49:19;;;;;;;46.88;22.15;;;;;;;6.97;100.00;103206.41;4925684;28;20051;-83
2021/12/17 00:54:43;;;;;;;39.72;20.55;;;;;;;7.00;100.00;103208.28;4972469;28;20065;-84
2021/12/17 00:57:26;;;;;;;41.72;20.50;;;;;;;7.04;100.00;103210.19;4987578;28;20255;-85
2021/12/17 00:59:54;;;;;;;39.40;19.63;;;;;;;7.07;100.00;103205.16;4967001;28;20138;-87
2021/12/17 01:02:30;;;;;;;38.75;18.45;;;;;;;7.12;100.00;103211.47;4969400;28;20082;-86
2021/12/17 01:05:15;;;;;;;38.80;18.80;;;;;;;7.14;100.00;103214.13;4964209;28;20132;-87
2021/12/17 01:07:48;;;;;;;34.00;16.88;;;;;;;7.12;100.00;103207.13;4971881;28;20053;-85
2021/12/17 01:10:29;;;;;;;;;;;;;;;7.15;100.00;103211.59;4970258;28;22003;-83
2021/12/17 01:12:58;;;;;;;32.28;16.35;;;;;;;7.18;100.00;103210.84;4969385;28;19929;-84
2021/12/17 01:15:26;;;;;;;35.17;18.00;;;;;;;7.20;100.00;103220.53;4956911;28;20136;-84
2021/12/17 01:18:03;;;;;;;32.97;17.52;;;;;;;7.22;100.00;103218.91;4967643;28;20047;-85
2021/12/17 01:20:50;;;;;;;34.22;16.30;;;;;;;7.24;100.00;103214.63;4966561;28;20046;-84
2021/12/17 01:23:48;;;;;;;38.38;16.27;;;;;;;7.29;100.00;103227.88;4950459;28;20055;-85
2021/12/17 01:38:13;;;;;;;;;;;;;;;7.43;100.00;103228.50;4975971;28;20050;-84
2021/12/17 01:41:00;;;;;;;28.52;14.73;;;;;;;7.45;100.00;103237.28;4988656;28;19929;-84
2021/12/17 01:43:32;;;;;;;32.55;17.30;;;;;;;7.47;100.00;103235.66;4972620;28;20065;-84
2021/12/17 01:46:03;;;;;;;36.05;15.25;;;;;;;7.49;100.00;103235.72;4977978;28;20147;-84
2021/12/17 01:48:38;;;;;;;27.23;15.20;;;;;;;7.48;100.00;103241.75;4971320;28;20050;-85
2021/12/17 01:56:52;;;;;;;27.23;14.98;;;;;;;7.53;100.00;103245.44;4989630;28;20046;-88
2021/12/17 01:59:23;;;;;;;32.50;15.60;;;;;;;7.52;100.00;103230.63;4973049;28;20392;-86
2021/12/17 02:01:57;;;;;;;28.02;13.80;;;;;;;7.54;100.00;103226.41;4987408;28;20558;-86
2021/12/17 02:04:28;;;;;;;27.60;15.50;;;;;;;7.53;100.00;103227.22;4960763;28;20771;-86
2021/12/17 02:06:54;;;;;;;27.15;14.68;;;;;;;7.54;100.00;103237.69;4956182;28;20137;-86
2021/12/17 02:21:18;;;;;;;26.65;12.65;;;;;;;7.56;100.00;103241.28;4977780;28;20938;-85
2021/12/17 02:29:56;;;;;;;25.48;13.35;;;;;;;7.57;100.00;103231.72;4980853;28;20041;-84
2021/12/17 02:32:25;;;;;;;20.13;13.27;;;;;;;7.59;100.00;103228.38;4985131;28;20050;-86
2021/12/17 02:35:08;;;;;;;28.33;15.68;;;;;;;7.58;100.00;103231.78;4980418;28;21075;-84
2021/12/17 02:37:35;;;;;;;23.23;12.68;;;;;;;7.57;99.65;103231.72;4960085;28;20197;-86
2021/12/17 02:40:17;;;;;;;28.13;14.10;;;;;;;7.58;99.59;103223.97;4960425;28;20077;-84
2021/12/17 02:45:32;;;;;;;;;;;;;;;7.59;98.95;103232.72;4977374;28;20068;-88
2021/12/17 02:48:13;;;;;;;22.83;12.60;;;;;;;7.60;99.36;103229.25;4976687;28;19933;-85
2021/12/17 02:50:47;;;;;;;21.45;11.75;;;;;;;7.62;99.18;103225.88;4980032;28;20034;-85
2021/12/17 02:53:17;;;;;;;25.48;12.77;;;;;;;7.61;98.86;103213.72;4989753;28;20051;-86
2021/12/17 02:55:51;;;;;;;22.95;12.70;;;;;;;7.61;98.99;103200.66;4972617;28;20066;-85
2021/12/17 02:58:18;;;;;;;28.70;13.85;;;;;;;7.61;98.68;103204.97;4977491;28;20148;-85
2021/12/17 03:00:46;;;;;;;21.45;12.07;;;;;;;7.60;98.81;103201.50;4979788;28;20133;-87
2021/12/17 03:03:14;;;;;;;22.23;12.68;;;;;;;7.58;98.66;103197.03;4973285;28;20077;-85
2021/12/17 03:05:42;;;;;;;23.13;12.02;;;;;;;7.57;98.81;103184.81;4975399;28;20100;-85
2021/12/17 03:08:15;;;;;;;18.30;11.20;;;;;;;7.58;98.53;103197.03;4975873;28;20173;-87
2021/12/17 03:10:47;;;;;;;20.38;11.75;;;;;;;7.57;98.93;103205.66;4961274;28;20073;-84
2021/12/17 03:13:20;;;;;;;20.38;12.35;;;;;;;7.57;99.06;103203.06;4972042;28;20054;-87
2021/12/17 03:15:51;;;;;;;21.43;12.73;;;;;;;7.58;99.21;103208.34;4960188;28;20050;-85
2021/12/17 03:23:54;;;;;;;21.67;11.90;;;;;;;7.54;99.50;103200.31;4961770;28;20399;-84
2021/12/17 03:26:27;;;;;;;21.98;11.70;;;;;;;7.53;99.82;103198.53;4997529;28;20034;-89
2021/12/17 03:28:57;;;;;;;17.08;11.18;;;;;;;7.51;99.67;103194.97;4999944;28;20038;-89
2021/12/17 03:31:26;;;;;;;20.33;13.18;;;;;;;7.49;99.97;103200.09;4982776;28;21108;-85
2021/12/17 03:34:01;;;;;;;16.80;9.75;;;;;;;7.47;100.00;103193.94;4982106;28;20041;-87
2021/12/17 03:36:30;;;;;;;19.40;11.48;;;;;;;7.45;100.00;103199.06;4982328;28;20136;-86
2021/12/17 03:38:56;;;;;;;18.30;10.40;;;;;;;7.42;100.00;103193.72;4983933;28;20193;-85
2021/12/17 03:41:28;;;;;;;21.90;12.75;;;;;;;7.41;100.00;103193.66;4981866;28;20050;-85
2021/12/17 03:43:55;;;;;;;22.67;11.65;;;;;;;7.37;100.00;103199.56;4962043;28;20884;-85
2021/12/17 03:46:23;;;;;;;24.60;11.60;;;;;;;7.35;100.00;103202.09;4966072;28;20046;-85
2021/12/17 03:48:50;;;;;;;20.15;12.05;;;;;;;7.34;100.00;103209.84;4977945;28;20112;-87
2021/12/17 03:51:19;;;;;;;19.83;11.07;;;;;;;7.33;100.00;103201.13;4980180;28;20046;-87
2021/12/17 03:53:53;;;;;;;20.88;10.75;;;;;;;7.32;100.00;103193.25;4995073;28;20100;-85
2021/12/17 03:56:24;;;;;;;21.48;10.90;;;;;;;7.32;100.00;103190.66;4988953;28;20547;-87
2021/12/17 03:58:53;;;;;;;22.50;11.95;;;;;;;7.33;100.00;103195.06;4979320;28;20081;-84
2021/12/17 04:01:21;;;;;;;20.52;11.73;;;;;;;7.31;100.00;103191.47;4975522;28;20061;-87
2021/12/17 04:03:48;;;;;;;21.83;11.70;;;;;;;7.29;100.00;103191.41;4965787;28;20173;-85
2021/12/17 04:06:15;;;;;;;17.88;10.38;;;;;;;7.28;100.00;103194.81;4975988;28;22521;-86
2021/12/17 04:08:41;;;;;;;18.77;10.57;;;;;;;7.27;100.00;103200.84;4976969;28;20512;-85
2021/12/17 04:11:16;;;;;;;24.80;11.85;;;;;;;7.26;100.00;103199.06;4974561;28;20056;-85
2021/12/17 04:13:43;;;;;;;18.48;10.27;;;;;;;7.27;100.00;103200.84;4972902;28;21577;-87
2021/12/17 04:16:11;;;;;;;23.00;10.82;;;;;;;7.27;100.00;103196.56;4961836;28;20034;-84
2021/12/17 04:18:42;;;;;;;18.02;10.18;;;;;;;7.28;100.00;103195.69;4974325;28;21148;-84
2021/12/17 04:21:13;;;;;;;19.15;10.63;;;;;;;7.30;100.00;103198.41;4976065;28;20165;-88
2021/12/17 04:23:42;;;;;;;21.13;11.80;;;;;;;7.28;100.00;103198.31;4994669;28;20054;-86
2021/12/17 04:26:09;;;;;;;20.15;11.85;;;;;;;7.28;100.00;103190.50;4974899;28;20054;-88
2021/12/17 04:28:41;;;;;;;24.73;11.40;;;;;;;7.28;100.00;103198.31;4978941;28;20395;-89
2021/12/17 04:31:08;;;;;;;22.50;12.70;;;;;;;7.26;100.00;103189.56;4988026;28;21426;-86
2021/12/17 04:33:37;;;;;;;22.23;12.02;;;;;;;7.25;100.00;103187.75;4992546;28;20046;-86
2021/12/17 04:36:07;;;;;;;20.63;10.95;;;;;;;7.25;100.00;103187.75;4972890;28;20050;-89
2021/12/17 04:38:36;;;;;;;20.58;12.27;;;;;;;7.25;100.00;103182.53;4978366;28;20045;-85
2021/12/17 04:41:36;;;;;;;22.88;12.00;;;;;;;7.25;100.00;103185.16;4975189;28;20042;-86
2021/12/17 04:44:02;;;;;;;22.00;11.88;;;;;;;7.25;100.00;103181.66;4962177;28;20038;-86
2021/12/17 04:46:34;;;;;;;23.38;11.30;;;;;;;7.26;100.00;103186.03;4974447;28;20045;-86
2021/12/17 04:57:31;;;;;;;18.63;10.65;;;;;;;7.24;100.00;103212.03;4924632;28;20055;-85
2021/12/17 05:00:04;;;;;;;20.70;10.68;;;;;;;7.26;100.00;103204.28;4983165;28;20073;-87
2021/12/17 05:02:36;;;;;;;21.73;11.17;;;;;;;7.26;100.00;103205.19;4975940;28;20072;-87
2021/12/17 05:05:07;;;;;;;23.17;11.52;;;;;;;7.26;100.00;103189.56;4963324;28;20308;-86
2021/12/17 05:07:46;;;;;;;18.23;10.77;;;;;;;7.28;100.00;103192.22;4963051;28;20129;-83
2021/12/17 05:10:21;;;;;;;19.92;10.40;;;;;;;7.29;100.00;103194.00;4978782;28;20099;-84
2021/12/17 05:18:24;;;;;;;;;;;;;;;7.25;100.00;103189.47;4988777;28;20044;-88
2021/12/17 05:20:57;;;;;;;19.83;11.20;;;;;;;7.25;100.00;103197.31;4974609;28;19929;-89
2021/12/17 05:23:30;;;;;;;19.67;10.75;;;;;;;7.23;100.00;103205.03;4978437;28;20591;-87
2021/12/17 05:26:01;;;;;;;25.10;12.07;;;;;;;7.22;100.00;103207.56;4969852;28;20114;-86
2021/12/17 05:28:35;;;;;;;18.67;9.18;;;;;;;7.22;100.00;103211.06;4961902;28;20104;-87
2021/12/17 05:31:05;;;;;;;22.15;13.55;;;;;;;7.22;100.00;103208.47;4951887;28;20054;-90
2021/12/17 05:33:32;;;;;;;15.57;9.98;;;;;;;7.19;100.00;103207.44;4960751;28;20045;-88
2021/12/17 05:35:59;;;;;;;22.98;11.48;;;;;;;7.16;100.00;103213.41;4954434;28;20591;-84
2021/12/17 05:38:28;;;;;;;19.85;10.07;;;;;;;7.16;100.00;103216.00;4971404;28;20107;-85
2021/12/17 05:40:57;;;;;;;20.33;10.38;;;;;;;7.15;100.00;103215.94;4971103;28;20435;-84
2021/12/17 05:43:25;;;;;;;26.80;13.13;;;;;;;7.16;100.00;103213.41;4952837;28;20911;-85
2021/12/17 05:46:05;;;;;;;18.55;10.38;;;;;;;7.17;100.00;103209.97;4955219;28;20046;-86
2021/12/17 05:48:35;;;;;;;21.58;11.73;;;;;;;7.17;100.00;103204.75;4974131;28;20136;-85
2021/12/17 05:51:06;;;;;;;24.17;12.10;;;;;;;7.17;100.00;103206.44;4961363;28;20056;-87
2021/12/17 05:53:33;;;;;;;24.38;12.85;;;;;;;7.16;100.00;103215.09;4963144;28;20796;-85
2021/12/17 05:56:02;;;;;;;25.23;12.93;;;;;;;7.16;100.00;103217.69;4941049;28;20041;-88
2021/12/17 05:58:34;;;;;;;24.25;12.93;;;;;;;7.14;100.00;103214.13;4976225;28;20056;-88
2021/12/17 06:01:01;;;;;;;19.88;11.32;;;;;;;7.15;100.00;103219.41;4963224;28;20049;-86
2021/12/17 06:03:30;;;;;;;24.67;12.20;;;;;;;7.16;100.00;103221.22;4958406;28;20507;-85
2021/12/17 06:05:56;;;;;;;26.75;12.55;;;;;;;7.16;100.00;103213.41;4975707;28;20048;-85
2021/12/17 06:08:23;;;;;;;20.25;12.23;;;;;;;7.16;100.00;103207.28;4988425;28;20042;-86
2021/12/17 06:10:51;;;;;;;24.67;12.20;;;;;;;7.12;100.00;103211.47;4978255;28;20042;-88
2021/12/17 06:13:17;;;;;;;28.15;13.15;;;;;;;7.11;100.00;103212.28;4971757;28;20052;-86
2021/12/17 06:15:44;;;;;;;25.95;12.35;;;;;;;7.09;100.00;103212.22;4961088;28;20060;-88
2021/12/17 06:18:10;;;;;;;23.75;11.60;;;;;;;7.09;100.00;103201.81;4981894;28;20068;-89
2021/12/17 06:20:38;;;;;;;26.30;12.57;;;;;;;7.08;100.00;103199.13;4979747;28;20716;-85
2021/12/17 06:23:06;;;;;;;24.13;12.50;;;;;;;7.08;100.00;103204.34;4979326;28;20045;-87
2021/12/17 06:25:33;;;;;;;26.20;12.38;;;;;;;7.08;100.00;103204.34;4976789;28;20109;-89
2021/12/17 06:28:00;;;;;;;24.75;11.80;;;;;;;7.09;100.00;103221.72;4976696;28;20458;-85
2021/12/17 06:30:27;;;;;;;26.20;12.38;;;;;;;7.09;100.00;103220.03;4980482;28;20065;-86
2021/12/17 06:32:53;;;;;;;27.48;14.02;;;;;;;7.09;100.00;103211.31;4959869;28;20074;-89
2021/12/17 06:35:20;;;;;;;28.80;14.27;;;;;;;7.08;100.00;103219.97;4996058;28;20140;-85
2021/12/17 06:37:47;;;;;;;29.73;12.15;;;;;;;7.07;100.00;103221.66;4978044;28;20052;-86
2021/12/17 06:40:16;;;;;;;27.27;12.68;;;;;;;7.07;100.00;103234.69;4964540;28;20070;-88
2021/12/17 06:42:45;;;;;;;24.83;12.40;;;;;;;7.05;100.00;103231.13;4964566;28;20046;-85
2021/12/17 06:45:20;;;;;;;25.52;11.48;;;;;;;7.05;100.00;103233.75;4976752;28;20038;-89
2021/12/17 06:47:54;;;;;;;26.08;11.13;;;;;;;7.05;100.00;103222.41;4963433;28;20136;-89
2021/12/17 07:07:26;;;;;;;13.98;7.03;;;;;;;7.04;100.00;103220.63;4916531;28;20105;-85
2021/12/17 07:18:21;;;;;;;14.15;7.78;;;;;;;7.11;100.00;103222.72;4944685;28;20670;-85
2021/12/17 07:21:10;;;;;;;14.20;7.43;;;;;;;7.11;100.00;103217.50;4976421;28;20038;-87
2021/12/17 07:24:04;;;;;;;14.32;7.05;;;;;;;7.12;100.00;103225.38;4983392;28;20099;-84
2021/12/17 07:32:32;;;;;;;11.50;6.60;;;;;;;7.12;100.00;103217.56;4982712;28;20097;-84
2021/12/17 07:40:30;;;;;;;10.25;5.85;;;;;;;7.07;100.00;103239.88;4965533;28;20041;-85
2021/12/17 07:43:10;;;;;;;8.45;5.35;;;;;;;7.06;100.00;103234.63;4977966;28;20050;-86
2021/12/17 07:45:39;;;;;;;7.63;4.93;;;;;;;7.03;100.00;103230.16;4991865;28;20079;-85
2021/12/17 07:48:07;;;;;;;8.70;5.07;;;;;;;7.02;100.00;103222.28;4962953;28;20061;-85
2021/12/17 07:50:34;;;;;;;10.10;5.20;;;;;;;7.02;100.00;103225.75;4989081;28;20565;-85
2021/12/17 07:53:01;;;;;;;9.57;4.55;;;;;;;7.02;100.00;103219.66;4970556;28;20042;-85
2021/12/17 07:55:27;;;;;;;7.28;4.05;;;;;;;7.01;100.00;103216.16;4975406;28;20041;-85
2021/12/17 07:57:54;;;;;;;7.28;4.05;;;;;;;7.02;100.00;103217.06;4970743;28;21433;-87
2021/12/17 08:00:21;;;;;;;7.20;4.32;;;;;;;7.01;100.00;103213.56;4973628;28;20161;-85
2021/12/17 08:02:48;;;;;;;7.97;4.60;;;;;;;7.00;100.00;103208.28;4978765;28;20045;-85
2021/12/17 08:05:18;;;;;;;8.77;5.53;;;;;;;6.99;100.00;103214.28;4953879;28;20523;-85
2021/12/17 08:07:45;;;;;;;10.35;5.95;;;;;;;7.00;100.00;103222.22;4975314;28;20398;-85
2021/12/17 08:10:12;;;;;;;12.15;6.90;;;;;;;7.02;100.00;103222.28;4985348;28;20049;-90
2021/12/17 08:12:39;;;;;;;11.10;7.03;;;;;;;7.05;100.00;103223.31;4960694;28;20053;-84
2021/12/17 08:15:09;;;;;;;10.88;6.45;;;;;;;7.06;100.00;103219.88;4977646;28;20046;-85
2021/12/17 08:18:03;;;;;;;13.43;7.32;;;;;;;7.05;100.00;103225.94;4977751;28;20045;-89
2021/12/17 08:26:13;;;;;;;12.68;7.50;;;;;;;7.03;100.00;103231.88;4989871;28;20061;-86
2021/12/17 08:28:54;;;;;;;11.38;7.97;;;;;;;7.02;100.00;103232.69;4977098;28;20049;-88
2021/12/17 08:31:22;;;;;;;18.90;9.82;;;;;;;7.00;100.00;103239.53;4977788;28;20648;-88
2021/12/17 08:33:48;;;;;;;14.55;9.43;;;;;;;6.97;100.00;103239.41;4980128;28;20044;-84
2021/12/17 08:36:15;;;;;;;12.82;8.32;;;;;;;6.96;100.00;103248.91;4991724;28;20041;-88
2021/12/17 08:38:51;;;;;;;14.10;8.60;;;;;;;6.95;100.00;103242.81;4979239;28;20065;-86
2021/12/17 08:41:22;;;;;;;12.18;7.18;;;;;;;6.96;100.00;103233.28;4957052;28;20053;-85
2021/12/17 08:43:49;;;;;;;12.63;7.68;;;;;;;6.98;100.00;103236.84;4976547;28;20279;-86
2021/12/17 08:46:16;;;;;;;12.95;7.65;;;;;;;7.01;100.00;103251.72;4976783;28;20049;-85
2021/12/17 08:48:47;;;;;;;13.00;7.50;;;;;;;7.06;100.00;103263.28;4975760;28;20058;-87
2021/12/17 08:51:14;;;;;;;13.50;7.47;;;;;;;7.07;100.00;103252.03;4969363;28;20049;-87
2021/12/17 08:53:41;;;;;;;12.20;7.45;;;;;;;7.10;100.00;103262.59;4995139;28;20098;-85
2021/12/17 08:56:08;;;;;;;14.18;7.07;;;;;;;7.07;100.00;103263.34;4971110;28;20089;-86
2021/12/17 08:58:35;;;;;;;11.10;6.95;;;;;;;7.06;100.00;103265.88;4953880;28;20088;-84
2021/12/17 09:01:03;;;;;;;13.25;8.23;;;;;;;7.06;100.00;103264.16;4979125;28;20049;-89
2021/12/17 09:03:30;;;;;;;12.15;6.80;;;;;;;7.06;100.00;103260.66;4988228;28;20030;-88
2021/12/17 09:05:57;;;;;;;13.32;7.53;;;;;;;7.04;100.00;103254.47;4987919;28;20076;-86
2021/12/17 09:08:24;;;;;;;13.13;7.97;;;;;;;7.03;100.00;103255.31;4994173;28;20053;-88
2021/12/17 09:11:04;;;;;;;11.15;7.45;;;;;;;7.02;100.00;103259.63;4978332;28;20531;-87
2021/12/17 09:13:31;;;;;;;9.05;4.70;;;;;;;6.99;100.00;103267.28;4971945;28;20042;-84
2021/12/17 09:16:04;;;;;;;8.45;3.80;;;;;;;6.93;100.00;103264.38;4989051;28;20074;-88
2021/12/17 09:18:35;;;;;;;4.72;4.28;;;;;;;6.91;100.00;103264.31;4970933;28;20508;-86
2021/12/17 09:21:01;;;;;;;8.07;5.20;;;;;;;6.90;100.00;103277.28;4995996;28;20057;-88
2021/12/17 09:23:29;;;;;;;6.25;4.10;;;;;;;6.89;100.00;103276.34;4961151;28;20105;-89
2021/12/17 09:25:55;;;;;;;6.55;4.13;;;;;;;6.89;100.00;103273.75;4986876;28;20057;-84
2021/12/17 09:28:22;;;;;;;5.85;4.18;;;;;;;6.88;100.00;103278.91;4975754;28;20062;-89
2021/12/17 09:30:49;;;;;;;4.88;3.47;;;;;;;6.87;100.00;103282.31;4968698;28;20062;-87
2021/12/17 09:33:15;;;;;;;4.25;3.15;;;;;;;6.89;100.00;103288.50;4959423;28;20054;-85
2021/12/17 09:35:44;;;;;;;5.10;3.72;;;;;;;6.90;100.00;103296.38;4976282;28;20061;-89
2021/12/17 09:38:11;;;;;;;9.60;4.22;;;;;;;6.92;100.00;103291.25;4965202;28;20114;-85
2021/12/17 09:40:38;;;;;;;7.32;3.60;;;;;;;6.92;100.00;103286.94;4992319;28;20949;-87
2021/12/17 09:43:04;;;;;;;8.80;5.10;;;;;;;6.95;100.00;103294.91;4975746;28;20456;-86
2021/12/17 09:45:31;;;;;;;5.13;3.08;;;;;;;6.96;100.00;103287.97;4961011;28;20455;-86
2021/12/17 09:47:58;;;;;;;5.47;3.40;;;;;;;6.96;100.00;103274.94;4979968;28;20054;-89
2021/12/17 09:50:25;;;;;;;4.32;2.95;;;;;;;6.94;100.00;103281.81;4988926;28;21173;-86
2021/12/17 09:52:53;;;;;;;5.47;3.10;;;;;;;6.94;100.00;103282.69;4961646;28;20046;-86
2021/12/17 09:55:21;;;;;;;3.22;2.90;;;;;;;6.93;100.00;103283.50;4972621;28;20104;-88
2021/12/17 09:57:47;;;;;;;5.05;3.60;;;;;;;6.95;100.00;103291.41;4960169;28;20054;-86
2021/12/17 10:00:22;;;;;;;3.13;2.80;;;;;;;6.95;100.00;103297.50;4961119;28;20060;-86
2021/12/17 10:02:50;;;;;;;5.47;3.30;;;;;;;7.01;100.00;103301.22;4970755;28;20124;-86
2021/12/17 10:05:26;;;;;;;4.00;2.95;;;;;;;7.02;100.00;103301.28;4975526;28;20375;-85
2021/12/17 10:07:58;;;;;;;4.05;2.92;;;;;;;7.06;100.00;103292.81;4971372;28;20054;-85
2021/12/17 10:10:44;;;;;;;4.70;3.33;;;;;;;7.08;100.00;103298.09;4977627;28;20293;-87
2021/12/17 10:13:19;;;;;;;5.63;3.53;;;;;;;7.08;100.00;103304.19;4976974;28;20820;-84
2021/12/17 10:15:52;;;;;;;3.90;3.28;;;;;;;7.07;100.00;103301.53;4955844;28;20422;-87
2021/12/17 10:18:32;;;;;;;5.45;3.40;;;;;;;7.07;100.00;103302.41;4959609;28;20038;-85
2021/12/17 10:21:02;;;;;;;5.97;4.50;;;;;;;7.10;100.00;103307.78;4985321;28;20049;-85
2021/12/17 10:23:31;;;;;;;6.57;4.57;;;;;;;7.16;100.00;103307.16;4957917;28;20128;-88
2021/12/17 10:25:59;;;;;;;6.25;4.28;;;;;;;7.17;100.00;103305.44;4971331;28;20046;-85
2021/12/17 10:28:27;;;;;;;5.57;3.03;;;;;;;7.24;100.00;103307.53;4963319;28;20128;-86
2021/12/17 10:30:56;;;;;;;2.72;2.45;;;;;;;7.25;100.00;103299.78;4962179;28;20056;-84
2021/12/17 10:33:29;;;;;;;3.22;2.35;;;;;;;7.32;100.00;103306.19;4988517;28;20044;-84
2021/12/17 10:36:00;;;;;;;3.58;2.10;;;;;;;7.37;100.00;103302.09;4993450;28;20574;-85
2021/12/17 10:38:27;;;;;;;2.75;1.98;;;;;;;7.39;99.98;103300.44;4975607;28;20689;-85
2021/12/17 10:41:05;;;;;;;2.75;2.40;;;;;;;7.40;99.97;103299.59;4960768;28;20068;-86
2021/12/17 10:43:37;;;;;;;3.78;2.17;;;;;;;7.42;99.98;103303.19;4975953;28;20046;-87
2021/12/17 10:46:25;;;;;;;2.67;2.15;;;;;;;7.43;100.00;103302.38;4967987;28;20145;-87
2021/12/17 10:49:00;;;;;;;4.68;2.40;;;;;;;7.42;100.00;103300.59;4962349;28;20054;-87
2021/12/17 10:51:47;;;;;;;4.55;2.90;;;;;;;7.38;100.00;103293.44;4973488;28;20534;-88
2021/12/17 10:54:20;;;;;;;3.97;2.33;;;;;;;7.29;100.00;103301.72;4962256;28;20960;-85
2021/12/17 10:56:55;;;;;;;5.63;3.05;;;;;;;7.25;100.00;103305.00;4988074;28;20145;-86
2021/12/17 10:59:25;;;;;;;3.33;2.72;;;;;;;7.24;100.00;103299.72;4977145;28;20543;-86
2021/12/17 11:02:06;;;;;;;2.08;1.85;;;;;;;7.23;100.00;103305.75;4960439;28;20057;-86
2021/12/17 11:04:46;;;;;;;3.42;2.20;;;;;;;7.25;100.00;103293.69;4973689;28;20045;-85
2021/12/17 11:07:21;;;;;;;2.63;2.08;;;;;;;7.27;100.00;103297.25;4961232;28;20050;-85
2021/12/17 11:09:54;;;;;;;2.33;2.00;;;;;;;7.29;100.00;103293.03;4954872;28;20054;-88
2021/12/17 11:12:25;;;;;;;2.88;2.08;;;;;;;7.33;100.00;103294.94;4977500;28;20129;-87
2021/12/17 11:14:51;;;;;;;4.18;2.42;;;;;;;7.38;100.00;103297.75;4989905;28;20042;-87
2021/12/17 11:17:21;;;;;;;2.75;2.22;;;;;;;7.40;100.00;103298.72;4971249;28;20045;-86
2021/12/17 11:19:53;;;;;;;3.35;2.00;;;;;;;7.42;100.00;103290.16;4958128;28;20093;-88
2021/12/17 11:22:20;;;;;;;3.38;2.92;;;;;;;7.45;100.00;103286.81;4955899;28;20078;-88
2021/12/17 11:24:48;;;;;;;2.55;2.08;;;;;;;7.50;100.00;103281.81;4990907;28;20064;-88
2021/12/17 11:27:17;;;;;;;2.03;1.85;;;;;;;7.50;100.00;103271.41;4959794;28;20320;-87
2021/12/17 11:29:45;;;;;;;2.75;2.10;;;;;;;7.53;100.00;103279.34;4985369;28;20074;-85
2021/12/17 11:32:13;;;;;;;4.75;3.63;;;;;;;7.54;100.00;103279.41;4973710;28;20144;-87
2021/12/17 11:34:46;;;;;;;3.80;3.03;;;;;;;7.55;100.00;103278.59;4957156;28;20049;-86
2021/12/17 11:37:19;;;;;;;3.97;3.03;;;;;;;7.55;100.00;103272.50;4982696;28;20050;-88
2021/12/17 11:40:05;;;;;;;4.60;3.50;;;;;;;7.58;100.00;103276.09;4971695;28;20072;-89
2021/12/17 11:43:17;;;;;;;5.22;3.30;;;;;;;7.58;100.00;103278.72;4991874;28;20054;-88
2021/12/17 11:45:46;;;;;;;6.03;2.85;;;;;;;7.58;100.00;103281.31;5000181;28;20056;-85
2021/12/17 11:48:23;;;;;;;3.80;2.97;;;;;;;7.57;100.00;103279.56;4955216;28;21327;-85
2021/12/17 11:51:27;;;;;;;4.22;2.92;;;;;;;7.57;100.00;103276.03;4958282;28;20535;-87
2021/12/17 11:54:05;;;;;;;6.97;4.40;;;;;;;7.58;100.00;103275.22;4949315;28;20064;-89
2021/12/17 11:56:39;;;;;;;4.93;4.20;;;;;;;7.56;100.00;103274.25;4976147;28;20038;-86
2021/12/17 11:59:14;;;;;;;7.63;4.80;;;;;;;7.54;100.00;103274.19;4964480;28;20073;-85
2021/12/17 12:02:19;;;;;;;6.88;4.75;;;;;;;7.55;100.00;103285.53;4942983;28;20078;-86
2021/12/17 12:05:01;;;;;;;7.03;4.10;;;;;;;7.56;100.00;103283.00;4985834;28;20136;-84
2021/12/17 12:07:28;;;;;;;7.32;4.25;;;;;;;7.57;100.00;103289.09;4972198;28;20093;-86
2021/12/17 12:10:08;;;;;;;7.63;4.45;;;;;;;7.60;100.00;103286.59;4989987;28;20045;-87
2021/12/17 12:12:35;;;;;;;6.15;4.35;;;;;;;7.57;100.00;103276.97;4968873;28;20212;-86
2021/12/17 12:15:17;;;;;;;5.28;3.85;;;;;;;7.55;100.00;103273.38;4974394;28;20058;-85
2021/12/17 12:18:02;;;;;;;7.45;4.70;;;;;;;7.55;100.00;103281.19;4983464;28;20038;-88
2021/12/17 12:20:44;;;;;;;6.60;4.75;;;;;;;7.54;100.00;103284.63;4979758;28;20050;-85
2021/12/17 12:23:45;;;;;;;5.80;4.65;;;;;;;7.55;99.95;103283.81;4994229;28;20199;-87
2021/12/17 12:26:27;;;;;;;6.63;4.65;;;;;;;7.53;99.92;103277.63;4974606;28;20620;-83
2021/12/17 12:29:02;;;;;;;7.40;4.95;;;;;;;7.53;99.98;103280.22;4977106;28;20112;-85
2021/12/17 12:31:35;;;;;;;8.95;6.30;;;;;;;7.53;99.69;103274.13;4978365;28;20054;-88
2021/12/17 12:34:01;;;;;;;6.72;5.40;;;;;;;7.49;100.00;103273.09;4987367;28;20050;-89
2021/12/17 12:37:04;;;;;;;10.35;6.88;;;;;;;7.47;100.00;103269.53;4984417;28;20045;-88
2021/12/17 12:39:47;;;;;;;9.23;6.00;;;;;;;7.49;100.00;103261.78;4972042;28;20100;-87
2021/12/17 12:42:21;;;;;;;9.00;5.93;;;;;;;7.48;100.00;103265.19;4969317;28;20045;-87
2021/12/17 12:44:48;;;;;;;7.45;6.10;;;;;;;7.48;100.00;103265.19;4991430;28;20049;-85
2021/12/17 12:47:27;;;;;;;8.20;6.50;;;;;;;7.48;100.00;103263.47;4990102;28;20064;-85
2021/12/17 12:50:09;;;;;;;8.13;5.60;;;;;;;7.52;100.00;103261.91;4970907;28;20041;-87
2021/12/17 12:52:52;;;;;;;15.15;7.35;;;;;;;7.56;100.00;103256.91;4977317;28;20043;-88
2021/12/17 12:55:37;;;;;;;9.63;5.80;;;;;;;7.59;99.65;103246.63;4954539;28;20141;-84
2021/12/17 12:58:19;;;;;;;8.15;6.00;;;;;;;7.59;99.08;103244.00;4974015;28;20077;-86
2021/12/17 13:01:02;;;;;;;8.90;5.63;;;;;;;7.59;98.75;103249.22;4967666;28;20052;-85
2021/12/17 13:03:37;;;;;;;7.93;5.28;;;;;;;7.62;99.03;103243.25;4956395;28;20042;-84
2021/12/17 13:06:17;;;;;;;7.97;5.60;;;;;;;7.61;99.26;103246.69;4976522;28;20081;-84
2021/12/17 13:08:54;;;;;;;8.73;5.72;;;;;;;7.62;99.07;103245.88;4960629;28;20042;-85
2021/12/17 13:11:21;;;;;;;9.02;5.65;;;;;;;7.61;98.98;103255.41;4958929;28;20046;-85
2021/12/17 13:13:54;;;;;;;11.32;6.40;;;;;;;7.61;99.39;103251.91;4985396;28;20270;-85
2021/12/17 13:16:42;;;;;;;8.73;6.15;;;;;;;7.60;99.42;103248.41;4955686;28;20136;-86
2021/12/17 13:22:25;;;;;;;9.95;5.60;;;;;;;7.58;98.93;103247.44;4932027;28;20148;-86
2021/12/17 13:24:50;;;;;;;9.50;6.03;;;;;;;7.57;98.75;103250.91;4974586;28;20122;-87
2021/12/17 13:27:17;;;;;;;7.55;5.10;;;;;;;7.57;99.22;103253.50;4954415;28;20061;-89
2021/12/17 13:29:45;;;;;;;6.95;5.18;;;;;;;7.61;99.24;103249.28;4968811;28;20050;-87
2021/12/17 13:32:17;;;;;;;8.35;5.57;;;;;;;7.64;98.80;103243.31;4970874;28;20137;-87
2021/12/17 13:35:17;;;;;;;9.40;6.35;;;;;;;7.66;98.61;103252.13;4970702;28;20056;-88
2021/12/17 13:38:02;;;;;;;8.35;5.60;;;;;;;7.67;98.36;103246.97;4971550;28;20129;-85
2021/12/17 13:40:36;;;;;;;7.18;4.97;;;;;;;7.69;98.47;103254.84;4973335;28;20558;-84
2021/12/17 13:43:04;;;;;;;11.77;5.88;;;;;;;7.69;98.17;103255.75;4960808;28;20049;-85
2021/12/17 13:45:35;;;;;;;7.22;5.47;;;;;;;7.68;98.28;103255.66;4956078;28;20051;-86
2021/12/17 13:48:05;;;;;;;8.77;6.03;;;;;;;7.66;98.47;103242.56;4958892;28;20046;-87
2021/12/17 13:50:43;;;;;;;8.88;6.85;;;;;;;7.64;97.77;103241.63;4968784;28;20053;-85
2021/12/17 13:53:18;;;;;;;8.45;5.72;;;;;;;7.62;98.46;103230.22;4957141;28;20141;-87
2021/12/17 13:55:50;;;;;;;8.80;6.07;;;;;;;7.61;98.57;103231.03;4986254;28;20841;-85
2021/12/17 13:58:24;;;;;;;7.47;5.93;;;;;;;7.62;98.14;103231.09;4952476;28;20065;-85